sensor_id;sensor_type;location;lat;lon;timestamp;temperature;humidity
71206;SHT31;58935;54.498;18.544;2023-07-24T00:01:18;16.61;83.19
71206;SHT31;58935;54.498;18.544;2023-07-24T00:03:43;16.62;83.21
71206;SHT31;58935;54.498;18.544;2023-07-24T00:06:10;16.60;83.17
71206;SHT31;58935;54.498;18.544;2023-07-24T00:08:35;16.59;83.20
71206;SHT31;58935;54.498;18.544;2023-07-24T00:11:01;16.59;83.21
71206;SHT31;58935;54.498;18.544;2023-07-24T00:13:29;16.59;83.21
71206;SHT31;58935;54.498;18.544;2023-07-24T00:15:55;16.58;83.21
71206;SHT31;58935;54.498;18.544;2023-07-24T00:18:22;16.59;83.20
71206;SHT31;58935;54.498;18.544;2023-07-24T00:20:47;16.58;83.20
71206;SHT31;58935;54.498;18.544;2023-07-24T00:23:13;16.57;83.20
71206;SHT31;58935;54.498;18.544;2023-07-24T00:25:38;16.56;83.20
71206;SHT31;58935;54.498;18.544;2023-07-24T00:28:03;16.55;83.22
71206;SHT31;58935;54.498;18.544;2023-07-24T00:30:29;16.55;83.30
71206;SHT31;58935;54.498;18.544;2023-07-24T00:32:54;16.54;83.30
71206;SHT31;58935;54.498;18.544;2023-07-24T00:35:19;16.55;83.29
71206;SHT31;58935;54.498;18.544;2023-07-24T00:37:45;16.56;83.30
71206;SHT31;58935;54.498;18.544;2023-07-24T00:40:10;16.56;83.29
71206;SHT31;58935;54.498;18.544;2023-07-24T00:42:36;16.55;83.27
71206;SHT31;58935;54.498;18.544;2023-07-24T00:45:01;16.56;83.26
71206;SHT31;58935;54.498;18.544;2023-07-24T00:47:27;16.57;83.20
71206;SHT31;58935;54.498;18.544;2023-07-24T00:49:53;16.58;83.18
71206;SHT31;58935;54.498;18.544;2023-07-24T00:52:20;16.58;83.14
71206;SHT31;58935;54.498;18.544;2023-07-24T00:54:46;16.59;83.12
71206;SHT31;58935;54.498;18.544;2023-07-24T00:57:12;16.59;83.10
71206;SHT31;58935;54.498;18.544;2023-07-24T00:59:38;16.60;83.07
71206;SHT31;58935;54.498;18.544;2023-07-24T01:02:07;16.61;83.04
71206;SHT31;58935;54.498;18.544;2023-07-24T01:04:33;16.60;83.00
71206;SHT31;58935;54.498;18.544;2023-07-24T01:06:59;16.60;83.00
71206;SHT31;58935;54.498;18.544;2023-07-24T01:09:25;16.62;83.00
71206;SHT31;58935;54.498;18.544;2023-07-24T01:11:51;16.62;83.00
71206;SHT31;58935;54.498;18.544;2023-07-24T01:14:32;16.63;83.00
71206;SHT31;58935;54.498;18.544;2023-07-24T01:17:10;16.62;83.00
71206;SHT31;58935;54.498;18.544;2023-07-24T01:19:46;16.63;83.03
71206;SHT31;58935;54.498;18.544;2023-07-24T01:27:56;16.65;83.00
71206;SHT31;58935;54.498;18.544;2023-07-24T01:30:22;16.65;83.02
71206;SHT31;58935;54.498;18.544;2023-07-24T01:32:48;16.64;83.00
71206;SHT31;58935;54.498;18.544;2023-07-24T01:35:14;16.64;83.03
71206;SHT31;58935;54.498;18.544;2023-07-24T01:37:41;16.63;83.08
71206;SHT31;58935;54.498;18.544;2023-07-24T01:40:08;16.62;83.10
71206;SHT31;58935;54.498;18.544;2023-07-24T01:42:36;16.63;83.10
71206;SHT31;58935;54.498;18.544;2023-07-24T01:45:02;16.62;83.11
71206;SHT31;58935;54.498;18.544;2023-07-24T01:47:29;16.59;83.10
71206;SHT31;58935;54.498;18.544;2023-07-24T01:49:55;16.57;83.10
71206;SHT31;58935;54.498;18.544;2023-07-24T01:52:21;16.54;83.12
71206;SHT31;58935;54.498;18.544;2023-07-24T01:54:47;16.53;83.17
71206;SHT31;58935;54.498;18.544;2023-07-24T01:57:13;16.51;83.20
71206;SHT31;58935;54.498;18.544;2023-07-24T01:59:38;16.49;83.20
71206;SHT31;58935;54.498;18.544;2023-07-24T02:02:04;16.46;83.20
71206;SHT31;58935;54.498;18.544;2023-07-24T02:04:29;16.44;83.20
71206;SHT31;58935;54.498;18.544;2023-07-24T02:06:55;16.42;83.25
71206;SHT31;58935;54.498;18.544;2023-07-24T02:09:20;16.41;83.30
71206;SHT31;58935;54.498;18.544;2023-07-24T02:11:45;16.40;83.37
71206;SHT31;58935;54.498;18.544;2023-07-24T02:14:12;16.39;83.38
71206;SHT31;58935;54.498;18.544;2023-07-24T02:16:39;16.40;83.41
71206;SHT31;58935;54.498;18.544;2023-07-24T02:19:05;16.41;83.47
71206;SHT31;58935;54.498;18.544;2023-07-24T02:21:31;16.42;83.46
71206;SHT31;58935;54.498;18.544;2023-07-24T02:23:57;16.44;83.46
71206;SHT31;58935;54.498;18.544;2023-07-24T02:26:23;16.45;83.44
71206;SHT31;58935;54.498;18.544;2023-07-24T02:28:48;16.48;83.48
71206;SHT31;58935;54.498;18.544;2023-07-24T02:31:14;16.49;83.46
71206;SHT31;58935;54.498;18.544;2023-07-24T02:33:39;16.50;83.42
71206;SHT31;58935;54.498;18.544;2023-07-24T02:36:04;16.51;83.41
71206;SHT31;58935;54.498;18.544;2023-07-24T02:38:30;16.52;83.42
71206;SHT31;58935;54.498;18.544;2023-07-24T02:40:55;16.54;83.49
71206;SHT31;58935;54.498;18.544;2023-07-24T02:43:21;16.54;83.46
71206;SHT31;58935;54.498;18.544;2023-07-24T02:45:46;16.55;83.43
71206;SHT31;58935;54.498;18.544;2023-07-24T02:48:11;16.56;83.49
71206;SHT31;58935;54.498;18.544;2023-07-24T02:50:37;16.57;83.50
71206;SHT31;58935;54.498;18.544;2023-07-24T02:53:02;16.58;83.50
71206;SHT31;58935;54.498;18.544;2023-07-24T02:55:28;16.60;83.50
71206;SHT31;58935;54.498;18.544;2023-07-24T02:57:53;16.60;83.44
71206;SHT31;58935;54.498;18.544;2023-07-24T03:00:19;16.61;83.50
71206;SHT31;58935;54.498;18.544;2023-07-24T03:02:44;16.62;83.46
71206;SHT31;58935;54.498;18.544;2023-07-24T03:05:10;16.63;83.47
71206;SHT31;58935;54.498;18.544;2023-07-24T03:07:35;16.63;83.50
71206;SHT31;58935;54.498;18.544;2023-07-24T03:10:01;16.63;83.45
71206;SHT31;58935;54.498;18.544;2023-07-24T03:12:28;16.64;83.45
71206;SHT31;58935;54.498;18.544;2023-07-24T03:14:53;16.64;83.43
71206;SHT31;58935;54.498;18.544;2023-07-24T03:17:18;16.65;83.39
71206;SHT31;58935;54.498;18.544;2023-07-24T03:19:44;16.66;83.40
71206;SHT31;58935;54.498;18.544;2023-07-24T03:22:09;16.67;83.40
71206;SHT31;58935;54.498;18.544;2023-07-24T03:24:35;16.67;83.36
71206;SHT31;58935;54.498;18.544;2023-07-24T03:27:01;16.69;83.30
71206;SHT31;58935;54.498;18.544;2023-07-24T03:29:27;16.70;83.27
71206;SHT31;58935;54.498;18.544;2023-07-24T03:31:52;16.72;83.25
71206;SHT31;58935;54.498;18.544;2023-07-24T03:34:18;16.72;83.18
71206;SHT31;58935;54.498;18.544;2023-07-24T03:36:43;16.74;83.10
71206;SHT31;58935;54.498;18.544;2023-07-24T03:39:09;16.74;83.10
71206;SHT31;58935;54.498;18.544;2023-07-24T03:41:36;16.75;83.02
71206;SHT31;58935;54.498;18.544;2023-07-24T03:44:02;16.76;83.00
71206;SHT31;58935;54.498;18.544;2023-07-24T03:46:27;16.76;82.94
71206;SHT31;58935;54.498;18.544;2023-07-24T03:48:53;16.78;82.94
71206;SHT31;58935;54.498;18.544;2023-07-24T03:51:18;16.80;82.93
71206;SHT31;58935;54.498;18.544;2023-07-24T03:53:44;16.83;82.90
71206;SHT31;58935;54.498;18.544;2023-07-24T03:56:09;16.85;82.84
71206;SHT31;58935;54.498;18.544;2023-07-24T03:58:34;16.89;82.72
71206;SHT31;58935;54.498;18.544;2023-07-24T04:01:00;16.92;82.58
71206;SHT31;58935;54.498;18.544;2023-07-24T04:03:25;16.96;82.49
71206;SHT31;58935;54.498;18.544;2023-07-24T04:05:50;16.98;82.40
71206;SHT31;58935;54.498;18.544;2023-07-24T04:08:16;17.02;82.33
71206;SHT31;58935;54.498;18.544;2023-07-24T04:10:41;17.03;82.30
71206;SHT31;58935;54.498;18.544;2023-07-24T04:13:06;17.05;82.23
71206;SHT31;58935;54.498;18.544;2023-07-24T04:15:32;17.05;82.22
71206;SHT31;58935;54.498;18.544;2023-07-24T04:17:57;17.07;82.20
71206;SHT31;58935;54.498;18.544;2023-07-24T04:20:22;17.08;82.20
71206;SHT31;58935;54.498;18.544;2023-07-24T04:22:48;17.13;82.16
71206;SHT31;58935;54.498;18.544;2023-07-24T04:25:13;17.17;82.08
71206;SHT31;58935;54.498;18.544;2023-07-24T04:27:39;17.23;82.01
71206;SHT31;58935;54.498;18.544;2023-07-24T04:30:05;17.26;81.88
71206;SHT31;58935;54.498;18.544;2023-07-24T04:32:31;17.34;81.78
71206;SHT31;58935;54.498;18.544;2023-07-24T04:34:57;17.39;81.65
71206;SHT31;58935;54.498;18.544;2023-07-24T04:37:22;17.44;81.52
71206;SHT31;58935;54.498;18.544;2023-07-24T04:39:47;17.48;81.42
71206;SHT31;58935;54.498;18.544;2023-07-24T04:42:13;17.53;81.22
71206;SHT31;58935;54.498;18.544;2023-07-24T04:44:38;17.57;81.08
71206;SHT31;58935;54.498;18.544;2023-07-24T04:47:03;17.64;81.05
71206;SHT31;58935;54.498;18.544;2023-07-24T04:49:29;17.68;81.01
71206;SHT31;58935;54.498;18.544;2023-07-24T04:51:55;17.78;80.90
71206;SHT31;58935;54.498;18.544;2023-07-24T04:54:21;17.88;80.80
71206;SHT31;58935;54.498;18.544;2023-07-24T04:56:46;17.98;80.54
71206;SHT31;58935;54.498;18.544;2023-07-24T04:59:12;18.08;80.34
71206;SHT31;58935;54.498;18.544;2023-07-24T05:01:37;18.18;80.29
71206;SHT31;58935;54.498;18.544;2023-07-24T05:04:03;18.30;80.19
71206;SHT31;58935;54.498;18.544;2023-07-24T05:06:28;18.40;79.85
71206;SHT31;58935;54.498;18.544;2023-07-24T05:08:54;18.49;79.54
71206;SHT31;58935;54.498;18.544;2023-07-24T05:11:19;18.61;79.26
71206;SHT31;58935;54.498;18.544;2023-07-24T05:13:44;18.72;79.05
71206;SHT31;58935;54.498;18.544;2023-07-24T05:16:10;18.80;78.42
71206;SHT31;58935;54.498;18.544;2023-07-24T05:18:35;18.84;77.96
71206;SHT31;58935;54.498;18.544;2023-07-24T05:21:00;18.86;77.87
71206;SHT31;58935;54.498;18.544;2023-07-24T05:23:26;18.88;77.68
71206;SHT31;58935;54.498;18.544;2023-07-24T05:28:29;18.93;77.76
71206;SHT31;58935;54.498;18.544;2023-07-24T05:31:00;18.97;77.63
71206;SHT31;58935;54.498;18.544;2023-07-24T05:33:30;19.04;77.38
71206;SHT31;58935;54.498;18.544;2023-07-24T05:35:57;19.12;77.23
71206;SHT31;58935;54.498;18.544;2023-07-24T05:38:24;19.19;77.03
71206;SHT31;58935;54.498;18.544;2023-07-24T05:40:56;19.24;76.97
71206;SHT31;58935;54.498;18.544;2023-07-24T05:43:28;19.30;76.94
71206;SHT31;58935;54.498;18.544;2023-07-24T05:45:56;19.37;76.76
71206;SHT31;58935;54.498;18.544;2023-07-24T05:48:23;19.41;76.76
71206;SHT31;58935;54.498;18.544;2023-07-24T05:50:49;19.49;76.76
71206;SHT31;58935;54.498;18.544;2023-07-24T05:53:15;19.55;76.53
71206;SHT31;58935;54.498;18.544;2023-07-24T05:55:41;19.60;76.32
71206;SHT31;58935;54.498;18.544;2023-07-24T05:58:08;19.66;76.20
71206;SHT31;58935;54.498;18.544;2023-07-24T06:00:35;19.72;75.99
71206;SHT31;58935;54.498;18.544;2023-07-24T06:03:01;19.76;75.88
71206;SHT31;58935;54.498;18.544;2023-07-24T06:05:28;19.83;75.77
71206;SHT31;58935;54.498;18.544;2023-07-24T06:07:53;19.91;75.71
71206;SHT31;58935;54.498;18.544;2023-07-24T06:10:19;19.99;75.46
71206;SHT31;58935;54.498;18.544;2023-07-24T06:12:44;20.06;75.47
71206;SHT31;58935;54.498;18.544;2023-07-24T06:15:10;20.14;75.11
71206;SHT31;58935;54.498;18.544;2023-07-24T06:17:35;20.20;74.47
71206;SHT31;58935;54.498;18.544;2023-07-24T06:20:01;20.25;74.01
71206;SHT31;58935;54.498;18.544;2023-07-24T06:22:26;20.30;73.48
71206;SHT31;58935;54.498;18.544;2023-07-24T06:24:51;20.35;73.27
71206;SHT31;58935;54.498;18.544;2023-07-24T06:27:16;20.40;73.11
71206;SHT31;58935;54.498;18.544;2023-07-24T06:29:42;20.45;72.58
71206;SHT31;58935;54.498;18.544;2023-07-24T06:32:07;20.49;72.35
71206;SHT31;58935;54.498;18.544;2023-07-24T06:34:33;20.54;72.71
71206;SHT31;58935;54.498;18.544;2023-07-24T06:36:59;20.62;72.71
71206;SHT31;58935;54.498;18.544;2023-07-24T06:39:25;20.68;72.49
71206;SHT31;58935;54.498;18.544;2023-07-24T06:41:51;20.73;72.17
71206;SHT31;58935;54.498;18.544;2023-07-24T06:44:18;20.73;71.49
71206;SHT31;58935;54.498;18.544;2023-07-24T06:46:43;20.73;71.12
71206;SHT31;58935;54.498;18.544;2023-07-24T06:49:09;20.70;70.62
71206;SHT31;58935;54.498;18.544;2023-07-24T06:51:35;20.70;70.85
71206;SHT31;58935;54.498;18.544;2023-07-24T06:54:00;20.71;71.01
71206;SHT31;58935;54.498;18.544;2023-07-24T06:56:25;20.71;70.74
71206;SHT31;58935;54.498;18.544;2023-07-24T06:58:51;20.69;70.55
71206;SHT31;58935;54.498;18.544;2023-07-24T07:01:16;20.60;70.66
71206;SHT31;58935;54.498;18.544;2023-07-24T07:03:41;20.48;70.85
71206;SHT31;58935;54.498;18.544;2023-07-24T07:06:07;20.40;71.50
71206;SHT31;58935;54.498;18.544;2023-07-24T07:08:34;20.35;72.04
71206;SHT31;58935;54.498;18.544;2023-07-24T07:10:59;20.30;71.71
71206;SHT31;58935;54.498;18.544;2023-07-24T07:13:26;20.24;71.44
71206;SHT31;58935;54.498;18.544;2023-07-24T07:15:52;20.20;71.47
71206;SHT31;58935;54.498;18.544;2023-07-24T07:18:17;20.20;71.47
71206;SHT31;58935;54.498;18.544;2023-07-24T07:20:47;20.27;71.58
71206;SHT31;58935;54.498;18.544;2023-07-24T07:23:13;20.35;71.79
71206;SHT31;58935;54.498;18.544;2023-07-24T07:25:39;20.50;71.80
71206;SHT31;58935;54.498;18.544;2023-07-24T07:28:08;20.64;71.46
71206;SHT31;58935;54.498;18.544;2023-07-24T07:30:34;20.73;71.17
71206;SHT31;58935;54.498;18.544;2023-07-24T07:33:00;20.77;70.57
71206;SHT31;58935;54.498;18.544;2023-07-24T07:35:25;20.83;70.34
71206;SHT31;58935;54.498;18.544;2023-07-24T07:37:51;20.92;70.52
71206;SHT31;58935;54.498;18.544;2023-07-24T07:40:17;21.00;70.38
71206;SHT31;58935;54.498;18.544;2023-07-24T07:42:42;21.10;70.39
71206;SHT31;58935;54.498;18.544;2023-07-24T07:45:10;21.20;69.62
71206;SHT31;58935;54.498;18.544;2023-07-24T07:47:36;21.31;69.66
71206;SHT31;58935;54.498;18.544;2023-07-24T07:50:02;21.41;69.77
71206;SHT31;58935;54.498;18.544;2023-07-24T07:52:28;21.51;69.57
71206;SHT31;58935;54.498;18.544;2023-07-24T07:54:53;21.59;68.80
71206;SHT31;58935;54.498;18.544;2023-07-24T07:57:19;21.66;68.82
71206;SHT31;58935;54.498;18.544;2023-07-24T07:59:44;21.76;68.56
71206;SHT31;58935;54.498;18.544;2023-07-24T08:02:09;21.85;68.37
71206;SHT31;58935;54.498;18.544;2023-07-24T08:04:35;21.92;68.27
71206;SHT31;58935;54.498;18.544;2023-07-24T08:07:00;22.00;67.55
71206;SHT31;58935;54.498;18.544;2023-07-24T08:09:26;22.03;67.13
71206;SHT31;58935;54.498;18.544;2023-07-24T08:11:51;22.07;67.06
71206;SHT31;58935;54.498;18.544;2023-07-24T08:14:17;22.16;67.26
71206;SHT31;58935;54.498;18.544;2023-07-24T08:16:43;22.23;66.86
71206;SHT31;58935;54.498;18.544;2023-07-24T08:19:09;22.31;67.27
71206;SHT31;58935;54.498;18.544;2023-07-24T08:21:34;22.42;67.19
71206;SHT31;58935;54.498;18.544;2023-07-24T08:24:00;22.48;66.81
71206;SHT31;58935;54.498;18.544;2023-07-24T08:26:27;22.56;66.48
71206;SHT31;58935;54.498;18.544;2023-07-24T08:28:53;22.63;66.53
71206;SHT31;58935;54.498;18.544;2023-07-24T08:31:18;22.69;66.11
71206;SHT31;58935;54.498;18.544;2023-07-24T08:33:44;22.75;65.97
71206;SHT31;58935;54.498;18.544;2023-07-24T08:36:09;22.79;65.66
71206;SHT31;58935;54.498;18.544;2023-07-24T08:38:36;22.83;65.56
71206;SHT31;58935;54.498;18.544;2023-07-24T08:41:03;22.85;65.58
71206;SHT31;58935;54.498;18.544;2023-07-24T08:43:35;22.88;64.88
71206;SHT31;58935;54.498;18.544;2023-07-24T08:46:03;22.89;64.45
71206;SHT31;58935;54.498;18.544;2023-07-24T08:48:31;22.90;63.91
71206;SHT31;58935;54.498;18.544;2023-07-24T08:51:07;22.91;63.59
71206;SHT31;58935;54.498;18.544;2023-07-24T08:53:36;22.90;63.59
71206;SHT31;58935;54.498;18.544;2023-07-24T08:56:07;22.95;64.11
71206;SHT31;58935;54.498;18.544;2023-07-24T08:58:35;23.05;64.09
71206;SHT31;58935;54.498;18.544;2023-07-24T09:01:02;23.15;63.32
71206;SHT31;58935;54.498;18.544;2023-07-24T09:03:29;23.23;63.41
71206;SHT31;58935;54.498;18.544;2023-07-24T09:05:57;23.29;62.80
71206;SHT31;58935;54.498;18.544;2023-07-24T09:08:29;23.32;62.40
71206;SHT31;58935;54.498;18.544;2023-07-24T09:11:00;23.37;62.06
71206;SHT31;58935;54.498;18.544;2023-07-24T09:13:28;23.41;61.55
71206;SHT31;58935;54.498;18.544;2023-07-24T09:15:54;23.45;60.63
71206;SHT31;58935;54.498;18.544;2023-07-24T09:18:20;23.53;59.84
71206;SHT31;58935;54.498;18.544;2023-07-24T09:20:46;23.64;60.58
71206;SHT31;58935;54.498;18.544;2023-07-24T09:23:13;23.75;60.23
71206;SHT31;58935;54.498;18.544;2023-07-24T09:25:40;23.84;59.28
71206;SHT31;58935;54.498;18.544;2023-07-24T09:28:10;23.91;58.95
71206;SHT31;58935;54.498;18.544;2023-07-24T09:30:38;23.94;58.17
71206;SHT31;58935;54.498;18.544;2023-07-24T09:33:05;23.89;57.94
71206;SHT31;58935;54.498;18.544;2023-07-24T09:35:32;23.84;58.38
71206;SHT31;58935;54.498;18.544;2023-07-24T09:38:02;23.79;58.46
71206;SHT31;58935;54.498;18.544;2023-07-24T09:40:37;23.77;58.80
71206;SHT31;58935;54.498;18.544;2023-07-24T09:45:50;23.79;56.83
71206;SHT31;58935;54.498;18.544;2023-07-24T09:48:18;23.76;57.30
71206;SHT31;58935;54.498;18.544;2023-07-24T09:50:47;23.80;57.65
71206;SHT31;58935;54.498;18.544;2023-07-24T09:53:18;23.86;57.98
71206;SHT31;58935;54.498;18.544;2023-07-24T09:55:56;23.92;57.08
71206;SHT31;58935;54.498;18.544;2023-07-24T09:58:23;23.96;56.83
71206;SHT31;58935;54.498;18.544;2023-07-24T10:00:51;24.02;57.15
71206;SHT31;58935;54.498;18.544;2023-07-24T10:03:18;24.09;56.45
71206;SHT31;58935;54.498;18.544;2023-07-24T10:05:47;24.12;56.35
71206;SHT31;58935;54.498;18.544;2023-07-24T10:08:17;24.20;57.07
71206;SHT31;58935;54.498;18.544;2023-07-24T10:10:44;24.22;56.51
71206;SHT31;58935;54.498;18.544;2023-07-24T10:13:11;24.23;56.68
71206;SHT31;58935;54.498;18.544;2023-07-24T10:15:40;24.25;56.40
71206;SHT31;58935;54.498;18.544;2023-07-24T10:18:08;24.34;56.84
71206;SHT31;58935;54.498;18.544;2023-07-24T10:20:35;24.43;57.04
71206;SHT31;58935;54.498;18.544;2023-07-24T10:23:03;24.50;56.80
71206;SHT31;58935;54.498;18.544;2023-07-24T10:25:31;24.52;56.86
71206;SHT31;58935;54.498;18.544;2023-07-24T10:28:05;24.57;56.82
71206;SHT31;58935;54.498;18.544;2023-07-24T10:30:35;24.65;57.14
71206;SHT31;58935;54.498;18.544;2023-07-24T10:33:09;24.79;56.80
71206;SHT31;58935;54.498;18.544;2023-07-24T10:35:42;24.96;56.56
71206;SHT31;58935;54.498;18.544;2023-07-24T10:38:11;25.15;55.52
71206;SHT31;58935;54.498;18.544;2023-07-24T10:40:40;25.32;55.62
71206;SHT31;58935;54.498;18.544;2023-07-24T10:43:10;25.44;55.14
71206;SHT31;58935;54.498;18.544;2023-07-24T10:48:20;25.55;54.70
71206;SHT31;58935;54.498;18.544;2023-07-24T10:50:48;25.65;54.48
71206;SHT31;58935;54.498;18.544;2023-07-24T10:53:16;25.74;52.38
71206;SHT31;58935;54.498;18.544;2023-07-24T10:55:44;25.78;52.55
71206;SHT31;58935;54.498;18.544;2023-07-24T10:58:12;25.86;52.53
71206;SHT31;58935;54.498;18.544;2023-07-24T11:00:39;25.93;51.49
71206;SHT31;58935;54.498;18.544;2023-07-24T11:03:10;26.05;52.82
71206;SHT31;58935;54.498;18.544;2023-07-24T11:05:40;26.27;53.38
71206;SHT31;58935;54.498;18.544;2023-07-24T11:08:08;26.44;52.09
71206;SHT31;58935;54.498;18.544;2023-07-24T11:10:43;26.52;51.95
71206;SHT31;58935;54.498;18.544;2023-07-24T11:13:18;26.58;50.60
71206;SHT31;58935;54.498;18.544;2023-07-24T11:15:50;26.66;50.83
71206;SHT31;58935;54.498;18.544;2023-07-24T11:18:18;26.84;50.97
71206;SHT31;58935;54.498;18.544;2023-07-24T11:20:53;26.96;50.30
71206;SHT31;58935;54.498;18.544;2023-07-24T11:23:20;27.00;49.97
71206;SHT31;58935;54.498;18.544;2023-07-24T11:25:51;27.04;50.13
71206;SHT31;58935;54.498;18.544;2023-07-24T11:28:19;27.16;50.26
71206;SHT31;58935;54.498;18.544;2023-07-24T11:30:45;27.21;49.68
71206;SHT31;58935;54.498;18.544;2023-07-24T11:33:12;27.20;49.97
71206;SHT31;58935;54.498;18.544;2023-07-24T11:35:40;27.21;49.74
71206;SHT31;58935;54.498;18.544;2023-07-24T11:38:10;27.20;49.99
71206;SHT31;58935;54.498;18.544;2023-07-24T11:40:37;27.21;50.03
71206;SHT31;58935;54.498;18.544;2023-07-24T11:43:05;27.20;50.02
71206;SHT31;58935;54.498;18.544;2023-07-24T11:45:42;27.18;49.82
71206;SHT31;58935;54.498;18.544;2023-07-24T11:48:09;27.24;50.02
71206;SHT31;58935;54.498;18.544;2023-07-24T11:53:18;27.25;49.85
71206;SHT31;58935;54.498;18.544;2023-07-24T11:55:54;27.13;49.79
71206;SHT31;58935;54.498;18.544;2023-07-24T11:58:28;26.94;49.78
71206;SHT31;58935;54.498;18.544;2023-07-24T12:00:55;26.78;50.42
71206;SHT31;58935;54.498;18.544;2023-07-24T12:03:25;26.70;50.48
71206;SHT31;58935;54.498;18.544;2023-07-24T12:05:53;26.61;50.30
71206;SHT31;58935;54.498;18.544;2023-07-24T12:08:29;26.52;50.48
71206;SHT31;58935;54.498;18.544;2023-07-24T12:11:00;26.46;50.44
71206;SHT31;58935;54.498;18.544;2023-07-24T12:13:27;26.43;50.13
71206;SHT31;58935;54.498;18.544;2023-07-24T12:15:53;26.50;49.85
71206;SHT31;58935;54.498;18.544;2023-07-24T12:18:19;26.59;49.14
71206;SHT31;58935;54.498;18.544;2023-07-24T12:20:44;26.69;48.74
71206;SHT31;58935;54.498;18.544;2023-07-24T12:23:09;26.79;48.48
71206;SHT31;58935;54.498;18.544;2023-07-24T12:25:35;26.91;49.17
71206;SHT31;58935;54.498;18.544;2023-07-24T12:28:00;27.05;49.49
71206;SHT31;58935;54.498;18.544;2023-07-24T12:30:26;27.08;48.99
71206;SHT31;58935;54.498;18.544;2023-07-24T12:32:51;27.04;48.58
71206;SHT31;58935;54.498;18.544;2023-07-24T12:35:16;27.13;49.22
71206;SHT31;58935;54.498;18.544;2023-07-24T12:37:43;27.20;48.39
71206;SHT31;58935;54.498;18.544;2023-07-24T12:40:10;27.24;47.67
71206;SHT31;58935;54.498;18.544;2023-07-24T12:42:36;27.33;48.40
71206;SHT31;58935;54.498;18.544;2023-07-24T12:45:02;27.43;47.07
71206;SHT31;58935;54.498;18.544;2023-07-24T12:47:28;27.46;46.23
71206;SHT31;58935;54.498;18.544;2023-07-24T12:49:55;27.47;45.98
71206;SHT31;58935;54.498;18.544;2023-07-24T12:52:21;27.48;46.40
71206;SHT31;58935;54.498;18.544;2023-07-24T12:54:47;27.55;46.41
71206;SHT31;58935;54.498;18.544;2023-07-24T12:57:12;27.70;46.68
71206;SHT31;58935;54.498;18.544;2023-07-24T12:59:37;27.92;46.57
71206;SHT31;58935;54.498;18.544;2023-07-24T13:02:03;28.05;45.84
71206;SHT31;58935;54.498;18.544;2023-07-24T13:04:28;28.11;45.46
71206;SHT31;58935;54.498;18.544;2023-07-24T13:06:53;28.12;45.03
71206;SHT31;58935;54.498;18.544;2023-07-24T13:09:19;28.14;45.36
71206;SHT31;58935;54.498;18.544;2023-07-24T13:11:45;28.22;45.52
71206;SHT31;58935;54.498;18.544;2023-07-24T13:14:13;28.32;45.85
71206;SHT31;58935;54.498;18.544;2023-07-24T13:16:40;28.42;45.19
71206;SHT31;58935;54.498;18.544;2023-07-24T13:19:05;28.45;44.14
71206;SHT31;58935;54.498;18.544;2023-07-24T13:21:30;28.42;44.11
71206;SHT31;58935;54.498;18.544;2023-07-24T13:23:56;28.43;44.15
71206;SHT31;58935;54.498;18.544;2023-07-24T13:26:22;28.45;44.27
71206;SHT31;58935;54.498;18.544;2023-07-24T13:28:47;28.40;44.54
71206;SHT31;58935;54.498;18.544;2023-07-24T13:31:14;28.34;44.91
71206;SHT31;58935;54.498;18.544;2023-07-24T13:33:44;28.30;45.25
71206;SHT31;58935;54.498;18.544;2023-07-24T13:36:11;28.45;45.95
71206;SHT31;58935;54.498;18.544;2023-07-24T13:38:37;28.69;45.71
71206;SHT31;58935;54.498;18.544;2023-07-24T13:41:02;28.92;45.31
71206;SHT31;58935;54.498;18.544;2023-07-24T13:43:29;28.97;44.56
71206;SHT31;58935;54.498;18.544;2023-07-24T13:45:56;28.82;44.03
71206;SHT31;58935;54.498;18.544;2023-07-24T13:48:22;28.65;44.64
71206;SHT31;58935;54.498;18.544;2023-07-24T13:50:48;28.52;44.58
71206;SHT31;58935;54.498;18.544;2023-07-24T13:53:15;28.48;45.36
71206;SHT31;58935;54.498;18.544;2023-07-24T13:55:41;28.57;45.32
71206;SHT31;58935;54.498;18.544;2023-07-24T13:58:06;28.74;44.57
71206;SHT31;58935;54.498;18.544;2023-07-24T14:00:31;28.85;44.34
71206;SHT31;58935;54.498;18.544;2023-07-24T14:02:57;28.93;44.39
71206;SHT31;58935;54.498;18.544;2023-07-24T14:05:23;29.06;44.06
71206;SHT31;58935;54.498;18.544;2023-07-24T14:07:49;29.13;44.20
71206;SHT31;58935;54.498;18.544;2023-07-24T14:10:14;29.31;44.37
71206;SHT31;58935;54.498;18.544;2023-07-24T14:12:39;29.48;43.87
71206;SHT31;58935;54.498;18.544;2023-07-24T14:15:05;29.58;44.22
71206;SHT31;58935;54.498;18.544;2023-07-24T14:17:31;29.62;44.14
71206;SHT31;58935;54.498;18.544;2023-07-24T14:19:56;29.71;43.97
71206;SHT31;58935;54.498;18.544;2023-07-24T14:22:21;29.68;44.40
71206;SHT31;58935;54.498;18.544;2023-07-24T14:24:47;29.24;46.57
71206;SHT31;58935;54.498;18.544;2023-07-24T14:27:13;28.69;47.31
71206;SHT31;58935;54.498;18.544;2023-07-24T14:29:39;28.01;49.25
71206;SHT31;58935;54.498;18.544;2023-07-24T14:32:05;27.46;50.80
71206;SHT31;58935;54.498;18.544;2023-07-24T14:34:31;26.91;51.97
71206;SHT31;58935;54.498;18.544;2023-07-24T14:36:57;26.41;53.10
71206;SHT31;58935;54.498;18.544;2023-07-24T14:39:22;25.91;54.52
71206;SHT31;58935;54.498;18.544;2023-07-24T14:41:47;25.62;55.40
71206;SHT31;58935;54.498;18.544;2023-07-24T14:44:13;25.43;55.81
71206;SHT31;58935;54.498;18.544;2023-07-24T14:46:38;25.17;56.34
71206;SHT31;58935;54.498;18.544;2023-07-24T14:49:04;25.00;56.73
71206;SHT31;58935;54.498;18.544;2023-07-24T14:51:29;24.79;57.66
71206;SHT31;58935;54.498;18.544;2023-07-24T14:53:55;24.50;58.39
71206;SHT31;58935;54.498;18.544;2023-07-24T14:56:20;24.25;58.79
71206;SHT31;58935;54.498;18.544;2023-07-24T14:58:46;24.05;59.43
71206;SHT31;58935;54.498;18.544;2023-07-24T15:01:12;23.84;59.95
71206;SHT31;58935;54.498;18.544;2023-07-24T15:03:38;23.69;60.15
71206;SHT31;58935;54.498;18.544;2023-07-24T15:06:04;23.55;60.09
71206;SHT31;58935;54.498;18.544;2023-07-24T15:08:31;23.43;60.28
71206;SHT31;58935;54.498;18.544;2023-07-24T15:10:58;23.35;60.66
71206;SHT31;58935;54.498;18.544;2023-07-24T15:13:23;23.25;60.63
71206;SHT31;58935;54.498;18.544;2023-07-24T15:15:49;23.14;60.92
71206;SHT31;58935;54.498;18.544;2023-07-24T15:18:14;23.11;61.35
71206;SHT31;58935;54.498;18.544;2023-07-24T15:20:40;23.23;61.45
71206;SHT31;58935;54.498;18.544;2023-07-24T15:23:05;23.41;61.02
71206;SHT31;58935;54.498;18.544;2023-07-24T15:25:30;23.57;60.50
71206;SHT31;58935;54.498;18.544;2023-07-24T15:27:56;23.71;59.90